< Typhoon 201105 2011 Season Typhoon 201107 >
Typhoon 201106 (MA-ON)
General InformationTrack Information on Google MapsDetailed Wind InformationAccess Analytics MapList of All Images || NewsDisaster Info.WeblogTrackbackTyphoon FrontTwiphoonTyphoon Now!Typhoon ImaginationResourceGoogle EarthGE AnimationAtom FeedGeoJSON
Detalied Best Track (Time Zone = UTC)
Year Month Day Hour Lat. Long. Pressure (hPa) Wind (kt) Class Image Chart
2011 7 11 12 18.5 157.3 1006 0 2 Image Chart
2011 7 11 18 18.7 156.6 1004 0 2 Image Chart
2011 7 12 00 18.9 155.9 1000 35 3 Image Chart
2011 7 12 06 19.2 155.2 1000 35 3 Image Chart
2011 7 12 12 19.3 154.2 996 40 3 Image Chart
2011 7 12 18 19.4 153.5 990 45 3 Image Chart
2011 7 13 00 19.6 152.7 985 50 4 Image Chart
2011 7 13 06 19.7 151.4 985 50 4 Image Chart
2011 7 13 12 19.8 150.0 980 55 4 Image Chart
2011 7 13 18 19.9 148.5 970 60 4 Image Chart
2011 7 14 00 20.0 147.5 965 65 5 Image Chart
2011 7 14 06 20.1 146.1 965 65 5 Image Chart
2011 7 14 12 20.2 144.9 960 75 5 Image Chart
2011 7 14 18 20.3 143.7 960 75 5 Image Chart
2011 7 15 00 20.4 142.5 955 80 5 Image Chart
2011 7 15 06 20.6 141.4 955 80 5 Image Chart
2011 7 15 12 20.6 140.5 950 85 5 Image Chart
2011 7 15 18 20.7 139.6 950 85 5 Image Chart
2011 7 16 00 21.1 138.8 950 85 5 Image Chart
2011 7 16 06 21.2 137.9 940 95 5 Image Chart
2011 7 16 12 21.9 137.1 935 95 5 Image Chart
2011 7 16 18 22.7 136.3 935 95 5 Image Chart
2011 7 17 00 23.4 135.6 935 95 5 Image Chart
2011 7 17 03 24.3 135.2 935 95 5 Image Chart
2011 7 17 06 24.6 134.5 940 85 5 Image Chart
2011 7 17 09 24.8 134.2 940 85 5 Image Chart
2011 7 17 12 25.2 133.9 940 85 5 Image Chart
2011 7 17 15 25.5 133.6 940 85 5 Image Chart
2011 7 17 18 25.9 133.5 950 80 5 Image Chart
2011 7 17 21 26.4 133.4 950 80 5 Image Chart
2011 7 18 00 27.0 133.4 950 80 5 Image Chart
2011 7 18 03 27.7 133.3 950 80 5 Image Chart
2011 7 18 06 28.4 133.2 960 75 5 Image Chart
2011 7 18 09 29.1 133.1 960 75 5 Image Chart
2011 7 18 12 29.7 132.9 960 75 5 Image Chart
2011 7 18 15 30.2 132.8 960 75 5 Image Chart
2011 7 18 18 30.8 132.8 960 75 5 Image Chart
2011 7 18 21 31.3 132.8 960 75 5 Image Chart
2011 7 19 00 31.8 132.8 960 75 5 Image Chart
2011 7 19 03 32.2 132.9 960 75 5 Image Chart
2011 7 19 06 32.7 133.1 960 75 5 Image Chart
2011 7 19 09 32.9 133.6 960 75 5 Image Chart
2011 7 19 12 33.3 134.3 960 75 5 Image Chart
2011 7 19 14 33.6 134.3 960 75 5 Image Chart
2011 7 19 15 33.6 134.3 965 70 5 Image Chart
2011 7 19 18 33.6 134.5 970 65 5 Image Chart
2011 7 19 21 33.5 135.0 975 60 4 Image Chart
2011 7 20 00 33.5 135.6 980 55 4 Image Chart
2011 7 20 03 33.5 136.2 980 55 4 Image Chart
2011 7 20 06 33.4 136.8 980 55 4 Image Chart
2011 7 20 09 33.0 137.5 980 55 4 Image Chart
2011 7 20 12 32.5 137.9 985 50 4 Image Chart
2011 7 20 15 32.0 138.1 985 50 4 Image Chart
2011 7 20 18 31.7 138.5 985 50 4 Image Chart
2011 7 20 21 31.1 138.7 985 50 4 Image Chart
2011 7 21 00 31.0 139.2 990 45 3 Image Chart
2011 7 21 03 30.8 140.1 990 45 3 Image Chart
2011 7 21 06 30.7 140.9 990 45 3 Image Chart
2011 7 21 12 30.5 141.7 990 45 3 Image Chart
2011 7 21 18 29.8 142.2 990 45 3 Image Chart
2011 7 22 00 29.1 143.0 990 45 3 Image Chart
2011 7 22 06 29.4 143.9 990 45 3 Image Chart
2011 7 22 12 30.6 144.3 990 45 3 Image Chart
2011 7 22 18 31.5 144.6 990 45 3 Image Chart
2011 7 23 00 32.4 145.0 990 45 3 Image Chart
2011 7 23 06 33.4 145.5 990 45 3 Image Chart
2011 7 23 12 34.5 146.2 990 45 3 Image Chart
2011 7 23 18 36.3 146.9 990 45 3 Image Chart
2011 7 24 00 37.8 147.9 990 45 3 Image Chart
2011 7 24 06 39.5 149.2 992 45 3 Image Chart
2011 7 24 12 41.6 150.3 994 0 6 Image Chart
2011 7 24 18 43.1 151.1 998 0 6 Image Chart
2011 7 25 00 44.5 152.5 1000 0 6 Image Chart
2011 7 25 06 45.7 153.1 1000 0 6 Image Chart
2011 7 25 12 46.1 154.2 1002 0 6 Image Chart
2011 7 25 18 46.1 155.0 1002 0 6 Image Chart
2011 7 26 00 45.8 156.5 1004 0 6 Image Chart
2011 7 26 06 45.5 157.9 1004 0 6 Image Chart
2011 7 26 12 45.3 159.0 1004 0 6 Image Chart
2011 7 26 18 45.0 159.3 1004 0 6 Image Chart
2011 7 27 00 43.8 160.8 1004 0 6 Image Chart
2011 7 27 06 43.3 161.1 1004 0 6 Image Chart
2011 7 27 12 42.6 161.0 1004 0 6 Image Chart
2011 7 27 18 41.9 161.1 1002 0 6 Image Chart
2011 7 28 00 41.5 161.1 1002 0 6 Image Chart
2011 7 28 06 41.2 161.0 1000 0 6 Image Chart
2011 7 28 12 40.7 160.7 1000 0 6 Image Chart
2011 7 28 18 40.8 161.7 1000 0 6 Image Chart
2011 7 29 00 42.2 162.2 1000 0 6 Image Chart
2011 7 29 06 43.6 163.0 1000 0 6 Image Chart
2011 7 29 12 44.8 163.4 1000 0 6 Image Chart
2011 7 29 18 45.8 163.4 1000 0 6 Image Chart
2011 7 30 00 47.1 163.6 1004 0 6 Image Chart
2011 7 30 06 48.1 163.8 1004 0 6 Image Chart
2011 7 30 12 49.3 163.8 1008 0 6 Image Chart
2011 7 30 18 50.7 164.1 1010 0 6 Image Chart
2011 7 31 00 51.7 164.7 1012 0 6 Image Chart
Japan Meteorological Agency Best Track Data | Correction Date : 2011-08-30
< Typhoon 201105 2011 Season Typhoon 201107 >

Help